createdAt,value
2018-02-18T00:01:01.682Z,77.20
2018-02-18T00:03:28.676Z,76.90
2018-02-18T00:05:55.647Z,76.90
2018-02-18T00:08:22.623Z,76.90
2018-02-18T00:10:49.599Z,76.80
2018-02-18T00:13:17.349Z,76.80
2018-02-18T00:15:44.304Z,76.70
2018-02-18T00:18:11.291Z,77.20
2018-02-18T00:20:39.028Z,77.20
2018-02-18T00:23:06.094Z,77.20
2018-02-18T00:25:33.131Z,77.10
2018-02-18T00:28:00.196Z,76.80
2018-02-18T00:30:27.262Z,76.70
2018-02-18T00:32:54.247Z,77.00
2018-02-18T00:35:21.272Z,76.70
2018-02-18T00:37:48.344Z,76.80
2018-02-18T00:40:15.388Z,77.20
2018-02-18T00:42:42.384Z,77.90
2018-02-18T00:45:09.407Z,77.60
2018-02-18T00:47:36.392Z,77.10
2018-02-18T00:50:03.363Z,76.60
2018-02-18T00:52:30.348Z,76.30
2018-02-18T00:54:58.086Z,77.10
2018-02-18T00:57:25.069Z,77.10
2018-02-18T00:59:52.042Z,77.50
2018-02-18T01:02:19.023Z,77.10
2018-02-18T01:04:46.001Z,76.80
2018-02-18T01:07:12.995Z,76.70
2018-02-18T01:09:39.971Z,76.60
2018-02-18T01:12:07.722Z,77.30
2018-02-18T01:14:34.752Z,77.30
2018-02-18T01:17:01.732Z,77.10
2018-02-18T01:19:28.768Z,77.20
2018-02-18T01:21:55.746Z,77.70
2018-02-18T01:24:22.799Z,78.00
2018-02-18T01:26:49.775Z,78.00
2018-02-18T01:29:16.752Z,77.80
2018-02-18T01:31:44.503Z,77.70
2018-02-18T01:34:11.475Z,77.70
2018-02-18T01:36:39.315Z,78.00
2018-02-18T01:39:06.279Z,78.00
2018-02-18T01:41:33.263Z,78.40
2018-02-18T01:44:00.291Z,78.60
2018-02-18T01:46:27.275Z,78.50
2018-02-18T01:48:54.251Z,78.10
2018-02-18T01:51:21.271Z,77.90
2018-02-18T01:53:48.330Z,78.00
2018-02-18T01:56:15.388Z,78.30
2018-02-18T01:58:42.360Z,78.40
2018-02-18T02:01:09.347Z,78.40
2018-02-18T02:03:36.367Z,78.30
2018-02-18T02:06:03.386Z,78.20
2018-02-18T02:08:31.136Z,78.40
2018-02-18T02:10:58.137Z,78.50
2018-02-18T02:13:25.871Z,78.80
2018-02-18T02:15:52.836Z,78.80
2018-02-18T02:18:19.839Z,78.70
2018-02-18T02:20:46.910Z,78.20
2018-02-18T02:23:14.015Z,77.80
2018-02-18T02:25:41.755Z,77.80
2018-02-18T02:28:08.743Z,77.80
2018-02-18T02:30:35.792Z,77.20
2018-02-18T02:33:02.827Z,76.60
2018-02-18T02:35:29.969Z,76.10
2018-02-18T02:37:57.703Z,76.40
2018-02-18T02:40:24.723Z,76.40
2018-02-18T02:42:51.799Z,76.60
2018-02-18T02:45:18.772Z,76.40
2018-02-18T02:47:45.781Z,76.80
2018-02-18T02:50:12.892Z,77.10
2018-02-18T02:52:39.872Z,77.10
2018-02-18T02:55:07.609Z,76.60
2018-02-18T02:57:34.601Z,76.60
2018-02-18T03:00:01.583Z,76.60
2018-02-18T03:02:29.399Z,76.30
2018-02-18T03:04:56.363Z,76.30
2018-02-18T03:07:23.406Z,76.10
2018-02-18T03:09:50.383Z,76.30
2018-02-18T03:12:17.368Z,76.40
2018-02-18T03:14:44.347Z,76.60
2018-02-18T03:17:12.100Z,76.40
2018-02-18T03:19:39.122Z,76.40
2018-02-18T03:22:06.184Z,75.90
2018-02-18T03:24:33.164Z,75.70
2018-02-18T03:27:00.203Z,76.00
2018-02-18T03:29:27.258Z,75.90
2018-02-18T03:31:54.319Z,75.80
2018-02-18T03:34:21.378Z,76.20
2018-02-18T03:36:48.442Z,76.40
2018-02-18T03:39:15.419Z,76.10
2018-02-18T03:41:42.464Z,75.50
2018-02-18T03:44:09.519Z,75.90
2018-02-18T03:46:36.579Z,76.40
2018-02-18T03:49:03.559Z,76.60
2018-02-18T03:51:30.582Z,76.60
2018-02-18T03:53:58.303Z,77.30
2018-02-18T03:56:25.286Z,77.30
2018-02-18T03:58:53.111Z,76.80
2018-02-18T04:01:20.083Z,76.70
2018-02-18T04:03:47.127Z,76.60
2018-02-18T04:06:14.288Z,76.70
2018-02-18T04:08:41.351Z,77.30
2018-02-18T04:11:08.327Z,77.70
2018-02-18T04:13:35.311Z,77.50
2018-02-18T04:16:03.052Z,77.70
2018-02-18T04:18:30.107Z,77.10
2018-02-18T04:20:57.099Z,77.60
2018-02-18T04:23:24.080Z,77.80
2018-02-18T04:25:51.907Z,77.40
2018-02-18T04:28:18.884Z,77.40
2018-02-18T04:30:45.916Z,77.80
2018-02-18T04:33:12.904Z,77.80
2018-02-18T04:35:39.876Z,77.70
2018-02-18T04:38:06.855Z,77.90
2018-02-18T04:40:34.675Z,77.50
2018-02-18T04:43:01.664Z,77.50
2018-02-18T04:45:28.688Z,77.80
2018-02-18T04:47:55.675Z,77.50
2018-02-18T04:50:22.643Z,77.10
2018-02-18T04:52:49.655Z,77.30
2018-02-18T04:55:16.731Z,76.60
2018-02-18T04:57:43.784Z,76.50
2018-02-18T05:00:10.845Z,76.80
2018-02-18T05:02:37.844Z,76.40
2018-02-18T05:05:04.864Z,76.00
2018-02-18T05:07:31.922Z,75.80
2018-02-18T05:09:58.992Z,76.50
2018-02-18T05:12:26.046Z,76.70
2018-02-18T05:14:53.107Z,76.50
2018-02-18T05:17:20.091Z,76.10
2018-02-18T05:19:47.124Z,75.90
2018-02-18T05:22:14.115Z,75.90
2018-02-18T05:24:41.139Z,76.40
2018-02-18T05:27:08.119Z,77.10
2018-02-18T05:29:35.159Z,77.20
2018-02-18T05:32:02.148Z,77.30
2018-02-18T05:34:29.181Z,76.80
2018-02-18T05:36:56.150Z,76.40
2018-02-18T05:39:23.136Z,76.40
2018-02-18T05:41:50.152Z,76.10
2018-02-18T05:44:17.212Z,76.20
2018-02-18T05:46:44.188Z,76.90
2018-02-18T05:49:11.233Z,76.10
2018-02-18T05:51:38.221Z,76.90
2018-02-18T05:54:05.247Z,77.30
2018-02-18T05:56:32.224Z,77.80
2018-02-18T05:58:59.268Z,77.90
2018-02-18T06:01:26.239Z,77.80
2018-02-18T06:03:53.227Z,77.90
2018-02-18T06:06:20.196Z,77.80
2018-02-18T06:08:48.027Z,76.90
2018-02-18T06:11:14.991Z,76.90
2018-02-18T06:13:42.035Z,76.60
2018-02-18T06:16:09.016Z,76.10
2018-02-18T06:18:36.055Z,75.90
2018-02-18T06:21:03.115Z,75.50
2018-02-18T06:23:30.100Z,75.20
2018-02-18T06:25:57.134Z,74.90
2018-02-18T06:28:24.120Z,74.80
2018-02-18T06:30:51.096Z,75.00
2018-02-18T06:33:18.112Z,75.20
2018-02-18T06:35:45.211Z,75.40
2018-02-18T06:38:12.247Z,75.50
2018-02-18T06:40:39.171Z,75.80
2018-02-18T06:43:06.247Z,76.00
2018-02-18T06:45:33.223Z,75.80
2018-02-18T06:48:00.202Z,75.80
2018-02-18T06:50:27.174Z,75.90
2018-02-18T06:52:54.946Z,76.30
2018-02-18T06:55:21.988Z,76.30
2018-02-18T06:57:48.968Z,76.40
2018-02-18T07:00:16.703Z,77.30
2018-02-18T07:02:43.750Z,77.20
2018-02-18T07:05:10.723Z,77.50
2018-02-18T07:07:37.975Z,77.80
2018-02-18T07:10:05.043Z,77.70
2018-02-18T07:12:32.031Z,77.80
2018-02-18T07:14:59.003Z,78.40
2018-02-18T07:17:25.990Z,78.80
2018-02-18T07:19:52.971Z,79.20
2018-02-18T07:22:20.035Z,79.50
2018-02-18T07:24:47.099Z,79.80
2018-02-18T07:27:14.079Z,79.80
2018-02-18T07:29:41.107Z,80.10
2018-02-18T07:32:08.079Z,80.20
2018-02-18T07:34:35.131Z,80.50
2018-02-18T07:37:02.152Z,80.50
2018-02-18T07:39:29.900Z,80.80
2018-02-18T07:41:57.004Z,80.80
2018-02-18T07:44:24.736Z,80.90
2018-02-18T07:46:51.708Z,80.80
2018-02-18T07:49:19.552Z,81.10
2018-02-18T07:51:46.626Z,81.10
2018-02-18T07:54:13.659Z,81.10
2018-02-18T07:56:40.635Z,81.30
2018-02-18T07:59:07.616Z,81.40
2018-02-18T08:01:34.590Z,81.50
2018-02-18T08:04:02.431Z,81.50
2018-02-18T08:06:29.383Z,81.50
2018-02-18T08:08:56.426Z,81.70
2018-02-18T08:11:23.491Z,81.80
2018-02-18T08:13:50.548Z,81.70
2018-02-18T08:16:17.611Z,82.40
2018-02-18T08:18:44.603Z,81.60
2018-02-18T08:21:11.630Z,81.50
2018-02-18T08:23:38.611Z,81.40
2018-02-18T08:26:06.391Z,81.50
2018-02-18T08:28:33.371Z,81.40
2018-02-18T08:31:00.335Z,81.20
2018-02-18T08:33:28.155Z,81.00
2018-02-18T08:35:55.123Z,80.90
2018-02-18T08:38:22.199Z,80.90
2018-02-18T08:40:49.163Z,80.90
2018-02-18T08:43:16.147Z,80.90
2018-02-18T08:45:43.972Z,80.40
2018-02-18T08:48:11.009Z,80.30
2018-02-18T08:50:38.803Z,80.50
2018-02-18T08:53:05.780Z,80.50
2018-02-18T08:55:32.764Z,79.80
2018-02-18T08:57:59.747Z,79.30
2018-02-18T09:00:27.484Z,78.50
2018-02-18T09:02:54.451Z,78.40
2018-02-18T09:05:21.432Z,78.10
2018-02-18T09:07:49.180Z,77.60
2018-02-18T09:10:16.220Z,77.60
2018-02-18T09:12:43.199Z,77.40
2018-02-18T09:15:10.176Z,76.80
2018-02-18T09:17:37.188Z,76.70
2018-02-18T09:20:04.260Z,76.60
2018-02-18T09:22:31.231Z,76.10
2018-02-18T09:24:58.259Z,76.10
2018-02-18T09:27:25.231Z,75.90
2018-02-18T09:29:52.219Z,75.40
2018-02-18T09:32:19.178Z,75.70
2018-02-18T09:34:46.163Z,75.30
2018-02-18T09:37:13.167Z,74.70
2018-02-18T09:39:40.219Z,74.30
2018-02-18T09:42:07.192Z,74.60
2018-02-18T09:44:34.163Z,74.20
2018-02-18T09:47:01.199Z,73.30
2018-02-18T09:49:28.176Z,72.80
2018-02-18T09:51:55.212Z,71.80
2018-02-18T09:54:22.268Z,72.20
2018-02-18T09:56:49.328Z,72.80
2018-02-18T09:59:16.306Z,72.10
2018-02-18T10:01:43.273Z,71.60
2018-02-18T10:04:10.248Z,70.90
2018-02-18T10:06:37.220Z,70.10
2018-02-18T10:09:04.975Z,69.10
2018-02-18T10:11:31.946Z,69.00
2018-02-18T10:13:58.920Z,67.80
2018-02-18T10:16:26.815Z,66.40
2018-02-18T10:18:54.595Z,65.00
2018-02-18T10:21:22.311Z,65.80
2018-02-18T10:23:49.284Z,65.80
2018-02-18T10:26:16.311Z,65.80
2018-02-18T10:28:43.371Z,63.40
2018-02-18T10:31:10.351Z,63.80
2018-02-18T10:33:37.378Z,62.00
2018-02-18T10:36:04.360Z,62.90
2018-02-18T10:38:31.399Z,60.60
2018-02-18T10:40:58.373Z,61.70
2018-02-18T10:43:25.864Z,60.50
2018-02-18T10:45:52.892Z,59.90
2018-02-18T10:48:19.873Z,60.30
2018-02-18T10:50:46.861Z,59.00
2018-02-18T10:53:13.837Z,53.80
2018-02-18T10:55:41.598Z,51.30
2018-02-18T10:58:08.627Z,52.10
2018-02-18T11:00:35.674Z,47.20
2018-02-18T11:03:02.731Z,46.90
2018-02-18T11:05:29.711Z,47.60
2018-02-18T11:07:56.695Z,48.40
2018-02-18T11:10:23.707Z,47.20
2018-02-18T11:12:50.768Z,42.60
2018-02-18T11:15:17.829Z,39.10
2018-02-18T11:17:44.904Z,38.10
2018-02-18T11:20:11.880Z,38.60
2018-02-18T11:22:38.851Z,38.70
2018-02-18T11:25:06.684Z,38.90
2018-02-18T11:27:33.751Z,38.90
2018-02-18T11:30:00.739Z,38.20
2018-02-18T11:32:27.712Z,35.90
2018-02-18T11:34:55.539Z,38.50
2018-02-18T11:37:22.604Z,38.50
2018-02-18T11:39:49.988Z,42.10
2018-02-18T11:42:16.960Z,43.90
2018-02-18T11:44:43.979Z,46.20
2018-02-18T11:47:10.951Z,47.30
2018-02-18T11:49:37.940Z,47.10
2018-02-18T11:52:05.687Z,47.90
2018-02-18T11:54:32.663Z,47.80
2018-02-18T11:56:59.691Z,48.70
2018-02-18T11:59:26.759Z,48.10
2018-02-18T12:01:53.816Z,47.20
2018-02-18T12:04:20.880Z,48.10
2018-02-18T12:06:47.939Z,47.70
2018-02-18T12:09:15.103Z,47.90
2018-02-18T12:11:42.075Z,47.20
2018-02-18T12:14:09.116Z,47.00
2018-02-18T12:16:36.176Z,49.20
2018-02-18T12:19:03.236Z,48.60
2018-02-18T12:21:30.209Z,47.40
2018-02-18T12:23:57.254Z,47.60
2018-02-18T12:26:24.223Z,47.00
2018-02-18T12:28:51.298Z,46.10
2018-02-18T12:31:18.277Z,44.20
2018-02-18T12:33:45.424Z,42.70
2018-02-18T12:36:12.415Z,39.90
2018-02-18T12:38:40.231Z,33.60
2018-02-18T12:41:07.215Z,33.60
2018-02-18T12:43:34.252Z,31.90
2018-02-18T12:46:01.239Z,29.80
2018-02-18T12:48:28.211Z,28.90
2018-02-18T12:50:55.959Z,27.80
2018-02-18T12:53:22.939Z,27.80
2018-02-18T12:55:51.426Z,27.20
2018-02-18T12:58:18.400Z,27.20
2018-02-18T13:00:46.232Z,26.90
2018-02-18T13:03:13.292Z,27.30
2018-02-18T13:05:40.383Z,27.40
2018-02-18T13:08:07.355Z,27.80
2018-02-18T13:10:35.195Z,27.30
2018-02-18T13:13:02.187Z,27.30
2018-02-18T13:15:29.207Z,27.00
2018-02-18T13:17:56.183Z,26.90
2018-02-18T13:20:23.172Z,27.50
2018-02-18T13:22:50.913Z,26.80
2018-02-18T13:25:17.969Z,26.80
2018-02-18T13:27:44.943Z,27.00
2018-02-18T13:30:11.946Z,26.80
2018-02-18T13:32:39.811Z,26.10
2018-02-18T13:35:06.768Z,26.60
2018-02-18T13:37:34.506Z,26.10
2018-02-18T13:40:01.547Z,26.10
2018-02-18T13:42:28.616Z,25.70
2018-02-18T13:44:55.632Z,25.70
2018-02-18T13:47:23.471Z,25.50
2018-02-18T13:49:50.514Z,25.40
2018-02-18T13:52:17.484Z,25.90
2018-02-18T13:54:44.462Z,25.80
2018-02-18T13:57:11.459Z,25.50
2018-02-18T13:59:39.195Z,25.90
2018-02-18T14:02:06.172Z,25.90
2018-02-18T14:04:33.922Z,26.10
2018-02-18T14:07:00.954Z,26.10
2018-02-18T14:09:28.018Z,26.10
2018-02-18T14:11:55.079Z,26.10
2018-02-18T14:14:22.077Z,26.40
2018-02-18T14:16:49.824Z,26.50
2018-02-18T14:19:16.796Z,26.50
2018-02-18T14:21:44.651Z,27.40
2018-02-18T14:24:11.631Z,27.00
2018-02-18T14:26:38.615Z,28.40
2018-02-18T14:29:06.359Z,29.70
2018-02-18T14:31:33.339Z,29.70
2018-02-18T14:34:00.355Z,31.10
2018-02-18T14:36:27.348Z,32.50
2018-02-18T14:41:46.684Z,36.50
2018-02-18T14:44:19.464Z,36.20
2018-02-18T14:46:52.387Z,37.20
2018-02-18T14:49:25.295Z,40.80
2018-02-18T14:51:58.201Z,41.80
2018-02-18T14:54:31.084Z,42.50
2018-02-18T14:57:04.103Z,41.10
2018-02-18T14:59:31.117Z,41.40
2018-02-18T15:01:58.183Z,42.80
2018-02-18T15:04:25.151Z,43.90
2018-02-18T15:06:52.142Z,45.80
2018-02-18T15:09:19.111Z,48.10
2018-02-18T15:11:46.931Z,44.90
2018-02-18T15:14:13.994Z,44.80
2018-02-18T15:16:40.971Z,45.60
2018-02-18T15:19:08.020Z,46.50
2018-02-18T15:21:35.015Z,47.30
2018-02-18T15:24:03.564Z,49.00
2018-02-18T15:26:30.623Z,49.00
2018-02-18T15:28:57.604Z,47.50
2018-02-18T15:31:24.570Z,49.30
2018-02-18T15:33:51.545Z,50.70
2018-02-18T15:36:18.523Z,50.60
2018-02-18T15:38:46.256Z,53.10
2018-02-18T15:41:13.399Z,53.10
2018-02-18T15:43:40.452Z,53.70
2018-02-18T15:46:07.430Z,52.90
2018-02-18T15:48:34.400Z,51.90
2018-02-18T15:51:01.400Z,51.70
2018-02-18T15:53:28.372Z,50.80
2018-02-18T15:55:55.379Z,50.50
2018-02-18T15:58:22.343Z,49.50
2018-02-18T16:00:49.367Z,49.80
2018-02-18T16:03:16.365Z,50.10
2018-02-18T16:05:43.373Z,49.90
2018-02-18T16:08:11.180Z,49.70
2018-02-18T16:10:38.219Z,49.70
2018-02-18T16:13:05.190Z,50.20
2018-02-18T16:15:32.159Z,51.00
2018-02-18T16:17:59.126Z,51.80
2018-02-18T16:20:26.172Z,52.40
2018-02-18T16:22:53.124Z,52.50
2018-02-18T16:25:20.174Z,52.70
2018-02-18T16:27:47.156Z,52.80
2018-02-18T16:30:14.196Z,52.80
2018-02-18T16:32:41.180Z,54.40
2018-02-18T16:35:08.151Z,54.80
2018-02-18T16:37:35.167Z,53.60
2018-02-18T16:40:02.155Z,55.00
2018-02-18T16:42:29.182Z,54.80
2018-02-18T16:44:56.226Z,55.00
2018-02-18T16:47:24.023Z,55.90
2018-02-18T16:49:50.991Z,55.90
2018-02-18T16:52:18.044Z,57.70
2018-02-18T16:54:45.109Z,57.60
2018-02-18T16:57:12.242Z,57.70
2018-02-18T16:59:40.040Z,58.70
2018-02-18T17:02:07.015Z,58.50
2018-02-18T17:04:34.058Z,59.10
2018-02-18T17:07:01.119Z,59.00
2018-02-18T17:09:28.083Z,59.20
2018-02-18T17:11:55.117Z,59.30
2018-02-18T17:14:22.840Z,60.10
2018-02-18T17:16:49.875Z,60.00
2018-02-18T17:19:17.980Z,61.20
2018-02-18T17:21:44.955Z,61.10
2018-02-18T17:24:12.028Z,61.70
2018-02-18T17:26:39.783Z,62.10
2018-02-18T17:29:06.793Z,62.00
2018-02-18T17:31:33.765Z,61.60
2018-02-18T17:34:00.748Z,61.30
2018-02-18T17:36:28.659Z,61.60
2018-02-18T17:38:55.870Z,62.30
2018-02-18T17:41:23.393Z,62.40
2018-02-18T17:43:50.382Z,62.40
2018-02-18T17:46:18.115Z,62.20
2018-02-18T17:48:45.323Z,62.20
2018-02-18T17:51:13.391Z,61.50
2018-02-18T17:53:41.920Z,60.80
2018-02-18T17:56:09.027Z,60.80
2018-02-18T17:58:36.060Z,61.40
2018-02-18T18:01:03.042Z,61.10
2018-02-18T18:03:30.076Z,60.90
2018-02-18T18:05:57.067Z,61.30
2018-02-18T18:08:24.907Z,62.70
2018-02-18T18:10:51.882Z,62.70
2018-02-18T18:13:18.855Z,63.10
2018-02-18T18:15:45.823Z,63.70
2018-02-18T18:18:13.588Z,64.20
2018-02-18T18:20:40.620Z,64.20
2018-02-18T18:23:07.717Z,64.30
2018-02-18T18:25:34.690Z,63.10
2018-02-18T18:28:01.744Z,62.90
2018-02-18T18:30:29.484Z,62.90
2018-02-18T18:32:56.580Z,62.90
2018-02-18T18:35:23.522Z,62.60
2018-02-18T18:37:50.488Z,63.40
2018-02-18T18:40:17.505Z,64.10
2018-02-18T18:42:44.484Z,64.00
2018-02-18T18:45:11.477Z,63.60
2018-02-18T18:47:39.291Z,63.80
2018-02-18T18:50:06.351Z,63.60
2018-02-18T18:52:33.334Z,63.80
2018-02-18T18:55:00.371Z,64.30
2018-02-18T18:57:27.890Z,64.90
2018-02-18T18:59:54.917Z,64.50
2018-02-18T19:02:21.892Z,63.90
2018-02-18T19:04:48.863Z,63.90
2018-02-18T19:07:15.844Z,65.10
2018-02-18T19:09:42.832Z,66.20
2018-02-18T19:12:09.787Z,66.00
2018-02-18T19:14:37.802Z,66.20
2018-02-18T19:17:06.299Z,68.30
2018-02-18T19:19:33.272Z,68.30
2018-02-18T19:22:00.253Z,68.30
2018-02-18T19:24:28.064Z,68.50
2018-02-18T19:26:55.123Z,68.50
2018-02-18T19:29:22.143Z,68.80
2018-02-18T19:31:49.975Z,69.20
2018-02-18T19:34:16.952Z,69.10
2018-02-18T19:36:43.935Z,69.20
2018-02-18T19:39:11.772Z,69.40
2018-02-18T19:41:38.767Z,69.50
2018-02-18T19:44:06.508Z,71.90
2018-02-18T19:46:33.484Z,71.80
2018-02-18T19:49:00.513Z,71.70
2018-02-18T19:51:27.492Z,71.70
2018-02-18T19:53:54.451Z,71.40
2018-02-18T19:56:21.451Z,71.80
2018-02-18T19:58:50.183Z,72.30
2018-02-18T20:01:17.159Z,72.30
2018-02-18T20:03:44.136Z,72.80
2018-02-18T20:06:11.159Z,73.20
2018-02-18T20:08:38.131Z,73.10
2018-02-18T20:11:05.183Z,74.00
2018-02-18T20:13:32.240Z,74.20
2018-02-18T20:15:59.219Z,74.20
2018-02-18T20:18:26.199Z,73.50
2018-02-18T20:20:53.168Z,73.60
2018-02-18T20:23:21.916Z,73.50
2018-02-18T20:25:48.897Z,73.40
2018-02-18T20:28:16.370Z,72.30
2018-02-18T20:30:43.335Z,72.10
2018-02-18T20:33:10.311Z,71.30
2018-02-18T20:35:38.047Z,71.30
2018-02-18T20:38:05.998Z,71.30
2018-02-18T20:40:33.791Z,71.40
2018-02-18T20:43:00.763Z,71.40
2018-02-18T20:45:27.734Z,71.00
2018-02-18T20:47:54.710Z,71.80
2018-02-18T20:50:21.675Z,71.40
2018-02-18T20:52:49.431Z,73.00
2018-02-18T20:55:16.411Z,72.80
2018-02-18T20:57:44.155Z,71.40
2018-02-18T21:00:11.208Z,71.40
2018-02-18T21:02:38.183Z,72.20
2018-02-18T21:05:05.155Z,72.30
2018-02-18T21:07:32.140Z,72.10
2018-02-18T21:09:59.875Z,72.10
2018-02-18T21:12:26.916Z,72.10
2018-02-18T21:14:53.979Z,71.70
2018-02-18T21:17:21.031Z,71.50
2018-02-18T21:19:47.997Z,71.60
2018-02-18T21:22:14.975Z,71.60
2018-02-18T21:24:42.003Z,71.70
2018-02-18T21:27:09.055Z,71.90
2018-02-18T21:29:36.028Z,71.60
2018-02-18T21:32:03.028Z,71.40
2018-02-18T21:34:30.859Z,72.10
2018-02-18T21:36:57.910Z,71.40
2018-02-18T21:39:24.895Z,71.50
2018-02-18T21:41:51.939Z,71.50
2018-02-18T21:44:19.016Z,71.80
2018-02-18T21:46:46.066Z,72.10
2018-02-18T21:49:13.111Z,72.00
2018-02-18T21:51:40.092Z,72.20
2018-02-18T21:54:07.139Z,72.20
2018-02-18T21:56:34.112Z,72.30
2018-02-18T21:59:01.096Z,72.10
2018-02-18T22:01:28.083Z,72.20
2018-02-18T22:03:55.059Z,72.20
2018-02-18T22:06:22.027Z,72.40
2018-02-18T22:08:49.003Z,72.50
2018-02-18T22:11:16.048Z,72.50
2018-02-18T22:13:43.042Z,72.60
2018-02-18T22:16:10.012Z,72.90
2018-02-18T22:18:37.760Z,73.40
2018-02-18T22:21:04.750Z,73.30
2018-02-18T22:23:31.759Z,74.00
2018-02-18T22:25:58.821Z,73.60
2018-02-18T22:28:25.800Z,73.70
2018-02-18T22:30:52.773Z,73.80
2018-02-18T22:33:19.744Z,74.00
2018-02-18T22:35:47.591Z,74.80
2018-02-18T22:38:14.627Z,74.80
2018-02-18T22:40:41.683Z,74.90
2018-02-18T22:43:08.659Z,74.90
2018-02-18T22:45:35.724Z,74.90
2018-02-18T22:48:02.679Z,75.00
2018-02-18T22:50:29.647Z,75.40
2018-02-18T22:52:56.623Z,75.60
2018-02-18T22:55:23.603Z,75.60
2018-02-18T22:57:51.361Z,75.60
2018-02-18T23:00:19.215Z,75.60
2018-02-18T23:02:46.256Z,76.40
2018-02-18T23:05:19.128Z,75.80
2018-02-18T23:07:46.104Z,76.00
2018-02-18T23:10:13.118Z,76.10
2018-02-18T23:12:40.132Z,76.20
2018-02-18T23:15:07.122Z,76.20
2018-02-18T23:17:34.100Z,76.20
2018-02-18T23:20:01.840Z,77.10
2018-02-18T23:22:28.879Z,76.50
2018-02-18T23:24:55.852Z,76.50
2018-02-18T23:27:22.982Z,76.50
2018-02-18T23:29:50.704Z,76.60
2018-02-18T23:32:17.747Z,76.60
2018-02-18T23:34:44.719Z,76.50
2018-02-18T23:37:11.691Z,76.70
2018-02-18T23:39:38.663Z,76.80
2018-02-18T23:42:06.400Z,76.80
2018-02-18T23:44:33.446Z,76.80
2018-02-18T23:47:00.423Z,76.60
2018-02-18T23:49:27.407Z,76.80
2018-02-18T23:51:54.423Z,77.00
2018-02-18T23:54:21.428Z,77.50
2018-02-18T23:56:48.371Z,76.40
2018-02-18T23:59:15.356Z,76.20
